Time;durP1;ratioP1;P1;durP2;ratioP2;P2;SDS_P1;SDS_P2;PMS_P1;PMS_P2;Temp;Humidity;BMP_temperature;BMP_pressure;BME280_temperature;BME280_humidity;BME280_pressure;Samples;Min_cycle;Max_cycle;Signal;HPM_P1;HPM_P2
2022/04/05 00:00:39;;;;;;;10.73;6.35;;;;;;;;;;6285683;22;20006;-84
2022/04/05 00:03:05;;;;;;;11.48;6.40;;;;;;;;;;6313071;22;20007;-84
2022/04/05 00:05:31;;;;;;;11.88;6.50;;;;;;;;;;6322786;22;19999;-83
2022/04/05 00:07:57;;;;;;;10.02;6.72;;;;;;;;;;6334457;22;20003;-84
2022/04/05 00:10:23;;;;;;;9.57;6.10;;;;;;;;;;6307423;22;19991;-82
2022/04/05 00:12:49;;;;;;;9.30;6.20;;;;;;;;;;6334691;22;20006;-82
2022/04/05 00:15:15;;;;;;;10.70;6.38;;;;;;;;;;6322964;22;20015;-84
2022/04/05 00:17:41;;;;;;;10.60;6.95;;;;;;;;;;6314135;22;20006;-85
2022/04/05 00:20:09;;;;;;;9.93;5.90;;;;;;;;;;6285442;22;20035;-84
2022/04/05 00:22:35;;;;;;;9.32;5.50;;;;;;;;;;6312608;22;20123;-84
2022/04/05 00:25:01;;;;;;;9.55;6.05;;;;;;;;;;6286175;22;20006;-84
2022/04/05 00:27:27;;;;;;;9.50;5.78;;;;;;;;;;6285598;22;20003;-85
2022/04/05 00:29:55;;;;;;;10.75;6.43;;;;;;;;;;6284786;22;20029;-86
2022/04/05 00:32:21;;;;;;;12.05;6.82;;;;;;;;;;6285192;22;20389;-85
2022/04/05 00:34:47;;;;;;;10.98;6.68;;;;;;;;;;6312629;22;19999;-82
2022/04/05 00:37:13;;;;;;;11.57;6.93;;;;;;;;;;6312534;22;20047;-81
2022/04/05 00:39:39;;;;;;;9.68;6.75;;;;;;;;;;6312323;22;20041;-83
2022/04/05 00:42:05;;;;;;;9.82;6.47;;;;;;;;;;6311961;22;20323;-85
2022/04/05 00:44:31;;;;;;;10.00;6.53;;;;;;;;;;6284555;22;20003;-84
2022/04/05 00:47:01;;;;;;;12.05;6.97;;;;;;;;;;6312619;22;20035;-84
2022/04/05 00:49:30;;;;;;;11.30;6.47;;;;;;;;;;6312797;22;20325;-83
2022/04/05 00:51:56;;;;;;;11.40;6.95;;;;;;;;;;6284246;22;20068;-85
2022/04/05 00:54:23;;;;;;;12.45;7.72;;;;;;;;;;6284641;22;20005;-84
2022/04/05 00:56:50;;;;;;;10.38;7.05;;;;;;;;;;6283611;22;20423;-86
2022/04/05 00:59:17;;;;;;;10.95;6.80;;;;;;;;;;6312351;22;20436;-84
2022/04/05 01:01:45;;;;;;;12.15;8.45;;;;;;;;;;6311560;22;20003;-83
2022/04/05 01:04:12;;;;;;;11.25;6.63;;;;;;;;;;6312480;22;20021;-83
2022/04/05 01:06:44;;;;;;;12.80;8.02;;;;;;;;;;6284365;22;20018;-84
2022/04/05 01:09:10;;;;;;;10.80;7.78;;;;;;;;;;6311398;22;20010;-84
2022/04/05 01:11:37;;;;;;;10.27;6.00;;;;;;;;;;6312148;22;20000;-85
2022/04/05 01:14:03;;;;;;;11.57;6.13;;;;;;;;;;6283165;22;20439;-83
2022/04/05 01:16:29;;;;;;;10.82;6.38;;;;;;;;;;6284127;22;20007;-83
2022/04/05 01:18:55;;;;;;;11.95;7.90;;;;;;;;;;6283771;22;20008;-84
2022/04/05 01:21:21;;;;;;;11.65;7.47;;;;;;;;;;6284061;22;20007;-84
2022/04/05 01:24:07;;;;;;;12.20;8.20;;;;;;;;;;6283733;22;20003;-84
2022/04/05 01:26:43;;;;;;;10.52;6.93;;;;;;;;;;6283916;22;20383;-84
2022/04/05 01:29:10;;;;;;;10.68;6.60;;;;;;;;;;6311343;22;19999;-83
2022/04/05 01:31:46;;;;;;;11.68;6.50;;;;;;;;;;6311396;22;20011;-85
2022/04/05 01:34:13;;;;;;;11.38;7.03;;;;;;;;;;6284424;22;20487;-85
2022/04/05 01:36:43;;;;;;;10.75;6.40;;;;;;;;;;6284550;22;20003;-83
2022/04/05 01:39:09;;;;;;;11.63;6.45;;;;;;;;;;6284049;22;20011;-83
2022/04/05 01:41:36;;;;;;;10.52;6.10;;;;;;;;;;6284633;22;20018;-83
2022/04/05 01:44:03;;;;;;;11.18;6.75;;;;;;;;;;6284738;22;20018;-84
2022/04/05 01:46:29;;;;;;;11.93;7.13;;;;;;;;;;6284489;22;20003;-84
2022/04/05 01:48:55;;;;;;;11.15;6.70;;;;;;;;;;6285726;22;20007;-85
2022/04/05 01:51:21;;;;;;;10.63;7.05;;;;;;;;;;6312576;22;20030;-86
2022/04/05 01:53:47;;;;;;;13.25;7.25;;;;;;;;;;6312081;22;20165;-86
2022/04/05 01:56:13;;;;;;;10.45;6.80;;;;;;;;;;6292095;22;20293;-84
2022/04/05 01:58:39;;;;;;;10.95;6.88;;;;;;;;;;6296464;22;20071;-83
2022/04/05 02:01:05;;;;;;;10.23;6.05;;;;;;;;;;6295880;22;20022;-85
2022/04/05 02:03:31;;;;;;;13.20;6.50;;;;;;;;;;6282328;22;20086;-84
2022/04/05 02:05:57;;;;;;;10.70;6.65;;;;;;;;;;6310691;22;20023;-84
2022/04/05 02:08:23;;;;;;;10.45;7.38;;;;;;;;;;6282570;22;20027;-85
2022/04/05 02:10:49;;;;;;;11.35;8.23;;;;;;;;;;6282039;22;20052;-85
2022/04/05 02:13:16;;;;;;;10.65;6.38;;;;;;;;;;6309865;22;19999;-83
2022/04/05 02:15:42;;;;;;;11.27;7.63;;;;;;;;;;6309201;22;20431;-85
2022/04/05 02:18:08;;;;;;;11.60;7.78;;;;;;;;;;6310229;22;20002;-83
2022/04/05 02:20:35;;;;;;;10.93;7.32;;;;;;;;;;6282080;22;20009;-85
2022/04/05 02:23:01;;;;;;;10.82;6.60;;;;;;;;;;6281721;22;19999;-83
2022/04/05 02:25:28;;;;;;;13.35;6.80;;;;;;;;;;6281052;22;20026;-83
2022/04/05 02:27:54;;;;;;;11.38;7.25;;;;;;;;;;6309760;22;20105;-86
2022/04/05 02:30:20;;;;;;;11.02;7.40;;;;;;;;;;6282135;22;20029;-81
2022/04/05 02:32:46;;;;;;;10.75;6.80;;;;;;;;;;6282272;22;20443;-84
2022/04/05 02:35:12;;;;;;;12.23;6.60;;;;;;;;;;6286715;22;20085;-84
2022/04/05 02:37:39;;;;;;;11.25;7.30;;;;;;;;;;6286450;22;20003;-83
2022/04/05 02:40:05;;;;;;;11.43;8.15;;;;;;;;;;6285809;22;20003;-81
2022/04/05 02:42:32;;;;;;;11.07;7.45;;;;;;;;;;6285393;22;20355;-84
2022/04/05 02:44:58;;;;;;;10.95;6.40;;;;;;;;;;6285404;22;20030;-84
2022/04/05 02:47:24;;;;;;;11.65;7.13;;;;;;;;;;6313932;22;20047;-83
2022/04/05 02:49:50;;;;;;;12.95;6.40;;;;;;;;;;6286485;22;20435;-81
2022/04/05 02:52:16;;;;;;;11.82;6.18;;;;;;;;;;6313757;22;20053;-82
2022/04/05 02:54:42;;;;;;;10.57;6.60;;;;;;;;;;6313792;22;19999;-82
2022/04/05 02:57:08;;;;;;;9.55;6.68;;;;;;;;;;6285667;22;20003;-82
2022/04/05 02:59:34;;;;;;;11.15;6.38;;;;;;;;;;6285743;22;20026;-84
2022/04/05 03:02:00;;;;;;;11.75;7.40;;;;;;;;;;6312564;22;20334;-86
2022/04/05 03:04:26;;;;;;;9.88;6.47;;;;;;;;;;6312083;22;19995;-86
2022/04/05 03:06:52;;;;;;;9.90;6.88;;;;;;;;;;6285226;22;20003;-84
2022/04/05 03:09:19;;;;;;;9.20;6.47;;;;;;;;;;6284524;22;20141;-85
2022/04/05 03:11:45;;;;;;;10.80;7.03;;;;;;;;;;6284231;22;20439;-86
2022/04/05 03:14:11;;;;;;;10.57;6.15;;;;;;;;;;6284845;22;19995;-83
2022/04/05 03:16:37;;;;;;;11.60;7.05;;;;;;;;;;6284520;22;20061;-83
2022/04/05 03:19:05;;;;;;;9.23;6.28;;;;;;;;;;6284013;22;20011;-85
2022/04/05 03:21:32;;;;;;;10.55;6.00;;;;;;;;;;6311981;22;19999;-84
2022/04/05 03:23:58;;;;;;;10.15;5.75;;;;;;;;;;6312448;22;20463;-83
2022/04/05 03:26:24;;;;;;;9.88;6.15;;;;;;;;;;6284016;22;20027;-85
2022/04/05 03:28:50;;;;;;;10.18;5.90;;;;;;;;;;6283424;22;20022;-85
2022/04/05 03:31:17;;;;;;;8.95;5.68;;;;;;;;;;6311598;22;20003;-84
2022/04/05 03:33:44;;;;;;;9.02;5.68;;;;;;;;;;6283442;22;20007;-86
2022/04/05 03:36:10;;;;;;;9.20;5.88;;;;;;;;;;6283185;22;20429;-82
2022/04/05 03:38:36;;;;;;;8.25;5.38;;;;;;;;;;6311625;22;20400;-84
2022/04/05 03:41:02;;;;;;;9.18;6.20;;;;;;;;;;6310563;22;19995;-84
2022/04/05 03:43:28;;;;;;;9.43;5.47;;;;;;;;;;6283383;22;20006;-84
2022/04/05 03:45:54;;;;;;;8.60;5.43;;;;;;;;;;6311069;22;20272;-83
2022/04/05 03:48:20;;;;;;;10.40;6.03;;;;;;;;;;6283366;22;20009;-84
2022/04/05 03:53:49;;;;;;;7.85;5.32;;;;;;;;;;6310974;22;20049;-84
2022/04/05 03:56:15;;;;;;;9.80;6.20;;;;;;;;;;6309952;22;20010;-86
2022/04/05 03:58:42;;;;;;;8.93;5.03;;;;;;;;;;6284031;22;20299;-85
2022/04/05 04:01:08;;;;;;;9.13;5.57;;;;;;;;;;6283435;22;20068;-85
2022/04/05 04:03:34;;;;;;;10.10;6.22;;;;;;;;;;6282465;22;20007;-84
2022/04/05 04:06:00;;;;;;;9.15;5.28;;;;;;;;;;6282407;22;19999;-85
2022/04/05 04:08:27;;;;;;;8.88;5.57;;;;;;;;;;6283206;22;20078;-85
2022/04/05 04:10:54;;;;;;;8.98;5.35;;;;;;;;;;6282676;22;20019;-84
2022/04/05 04:13:22;;;;;;;8.93;6.10;;;;;;;;;;6282110;22;20006;-84
2022/04/05 04:15:49;;;;;;;8.70;5.15;;;;;;;;;;6282136;22;20094;-85
2022/04/05 04:18:18;;;;;;;8.85;5.32;;;;;;;;;;6281005;22;20010;-84
2022/04/05 04:20:44;;;;;;;7.60;4.97;;;;;;;;;;6310883;22;20561;-84
2022/04/05 04:26:14;;;;;;;8.90;5.43;;;;;;;;;;6310906;22;20041;-84
2022/04/05 04:28:40;;;;;;;8.68;5.45;;;;;;;;;;6281597;22;20081;-85
2022/04/05 04:31:06;;;;;;;9.68;6.60;;;;;;;;;;6309156;22;19991;-87
2022/04/05 04:33:32;;;;;;;7.07;4.55;;;;;;;;;;6310612;22;19999;-84
2022/04/05 04:36:06;;;;;;;9.18;6.22;;;;;;;;;;6282880;22;20003;-84
2022/04/05 04:38:32;;;;;;;9.68;6.25;;;;;;;;;;6283139;22;20335;-86
2022/04/05 04:40:58;;;;;;;8.85;5.63;;;;;;;;;;6283171;22;20010;-84
2022/04/05 04:43:26;;;;;;;9.45;5.22;;;;;;;;;;6309696;22;19999;-84
2022/04/05 04:45:52;;;;;;;13.18;5.20;;;;;;;;;;6310757;22;19999;-86
2022/04/05 04:48:19;;;;;;;8.25;4.93;;;;;;;;;;6310464;22;20000;-84
2022/04/05 04:50:46;;;;;;;12.13;5.43;;;;;;;;;;6309431;22;20491;-85
2022/04/05 04:53:21;;;;;;;13.18;6.20;;;;;;;;;;6282315;22;20011;-84
2022/04/05 04:55:47;;;;;;;8.13;5.60;;;;;;;;;;6310272;22;20026;-85
2022/04/05 04:58:13;;;;;;;9.82;4.97;;;;;;;;;;6309484;22;20018;-84
2022/04/05 05:03:43;;;;;;;8.90;5.38;;;;;;;;;;4894776;22;20104;-83
2022/04/05 05:09:50;;;;;;;7.82;4.40;;;;;;;;;;6309170;22;20018;-84
2022/04/05 05:12:21;;;;;;;9.10;6.30;;;;;;;;;;6308656;22;20026;-86
2022/04/05 05:14:48;;;;;;;9.23;5.50;;;;;;;;;;6281804;22;20009;-86
2022/04/05 05:17:14;;;;;;;8.18;4.75;;;;;;;;;;6282844;22;20003;-86
2022/04/05 05:19:41;;;;;;;9.80;5.30;;;;;;;;;;6283261;22;20018;-84
2022/04/05 05:22:07;;;;;;;8.95;4.82;;;;;;;;;;6310073;22;19995;-86
2022/04/05 05:24:34;;;;;;;7.82;5.28;;;;;;;;;;6282339;22;19999;-84
2022/04/05 05:27:00;;;;;;;7.60;4.25;;;;;;;;;;6282733;22;20006;-85
2022/04/05 05:29:25;;;;;;;13.02;6.35;;;;;;;;;;6282366;22;20008;-84
2022/04/05 05:31:51;;;;;;;9.00;5.75;;;;;;;;;;6282344;22;20003;-84
2022/04/05 05:34:22;;;;;;;10.40;5.07;;;;;;;;;;6310236;22;20011;-85
2022/04/05 05:36:48;;;;;;;8.65;5.47;;;;;;;;;;6282684;22;20384;-83
2022/04/05 05:39:15;;;;;;;9.90;5.85;;;;;;;;;;6283158;22;20018;-86
2022/04/05 05:41:41;;;;;;;9.30;6.07;;;;;;;;;;6285771;22;20006;-84
2022/04/05 05:44:07;;;;;;;10.32;6.13;;;;;;;;;;6315211;22;20023;-85
2022/04/05 05:46:33;;;;;;;9.55;6.10;;;;;;;;;;6315028;22;19995;-86
2022/04/05 05:48:59;;;;;;;9.00;6.13;;;;;;;;;;6283996;22;20014;-84
2022/04/05 05:51:25;;;;;;;9.40;6.10;;;;;;;;;;6284510;22;20004;-86
2022/04/05 05:53:51;;;;;;;10.35;6.55;;;;;;;;;;6283806;22;20014;-85
2022/04/05 05:56:17;;;;;;;13.23;6.63;;;;;;;;;;6283084;22;20110;-84
2022/04/05 05:58:43;;;;;;;9.55;5.82;;;;;;;;;;6283322;22;20010;-85
2022/04/05 06:01:09;;;;;;;10.13;6.15;;;;;;;;;;6311130;22;19999;-85
2022/04/05 06:03:35;;;;;;;10.52;6.15;;;;;;;;;;6283268;22;20004;-84
2022/04/05 06:06:01;;;;;;;10.73;6.72;;;;;;;;;;6311216;22;20030;-83
2022/04/05 06:08:27;;;;;;;11.23;6.28;;;;;;;;;;6283261;22;20447;-84
2022/04/05 06:10:53;;;;;;;9.80;6.07;;;;;;;;;;6311047;22;20003;-84
2022/04/05 06:13:21;;;;;;;10.65;6.10;;;;;;;;;;6283062;22;20040;-85
2022/04/05 06:15:47;;;;;;;11.35;6.80;;;;;;;;;;6310373;22;19999;-84
2022/04/05 06:18:13;;;;;;;9.85;6.38;;;;;;;;;;6283520;22;20003;-84
2022/04/05 06:20:39;;;;;;;9.68;5.78;;;;;;;;;;6284984;22;20007;-85
2022/04/05 06:23:05;;;;;;;10.10;6.50;;;;;;;;;;6312732;22;20038;-84
2022/04/05 06:25:35;;;;;;;10.50;5.82;;;;;;;;;;6313723;22;20041;-85
2022/04/05 06:28:03;;;;;;;10.80;6.88;;;;;;;;;;6285276;22;20006;-84
2022/04/05 06:30:30;;;;;;;10.15;5.75;;;;;;;;;;6312829;22;20255;-84
2022/04/05 06:33:16;;;;;;;13.38;6.85;;;;;;;;;;6315896;22;20013;-83
2022/04/05 06:35:44;;;;;;;10.45;5.75;;;;;;;;;;6286853;22;20067;-86
2022/04/05 06:38:10;;;;;;;9.98;5.95;;;;;;;;;;6314517;22;20043;-84
2022/04/05 06:40:37;;;;;;;10.10;5.63;;;;;;;;;;6313383;22;20010;-85
2022/04/05 06:43:03;;;;;;;9.75;5.90;;;;;;;;;;6297904;22;20019;-82
2022/04/05 06:45:29;;;;;;;10.10;6.43;;;;;;;;;;6333418;22;20044;-84
2022/04/05 06:47:56;;;;;;;12.60;6.72;;;;;;;;;;6307418;22;20008;-82
2022/04/05 06:50:25;;;;;;;10.10;6.13;;;;;;;;;;6304824;22;20038;-84
2022/04/05 06:52:52;;;;;;;12.30;8.40;;;;;;;;;;6303221;22;20003;-85
2022/04/05 06:55:18;;;;;;;10.93;6.13;;;;;;;;;;6289470;22;19999;-86
2022/04/05 06:57:44;;;;;;;10.05;6.50;;;;;;;;;;6296080;22;20007;-83
2022/04/05 07:00:12;;;;;;;9.10;5.22;;;;;;;;;;6326668;22;20003;-84
2022/04/05 07:02:39;;;;;;;9.68;6.28;;;;;;;;;;6300810;22;20003;-84
2022/04/05 07:05:05;;;;;;;8.50;5.32;;;;;;;;;;6313066;22;20007;-85
2022/04/05 07:07:31;;;;;;;10.55;6.70;;;;;;;;;;6313391;22;19999;-84
2022/04/05 07:09:58;;;;;;;10.10;5.70;;;;;;;;;;6312558;22;20021;-85
2022/04/05 07:12:24;;;;;;;9.05;5.22;;;;;;;;;;6312896;22;19996;-84
2022/04/05 07:14:51;;;;;;;9.18;5.93;;;;;;;;;;6285443;22;20007;-86
2022/04/05 07:17:17;;;;;;;8.27;5.07;;;;;;;;;;6325272;22;19999;-84
2022/04/05 07:19:43;;;;;;;9.45;6.10;;;;;;;;;;6333956;22;19988;-83
2022/04/05 07:22:09;;;;;;;9.75;6.07;;;;;;;;;;6307640;22;20051;-85
2022/04/05 07:24:35;;;;;;;9.93;5.82;;;;;;;;;;6308113;22;19991;-83
2022/04/05 07:27:01;;;;;;;9.20;5.82;;;;;;;;;;6314219;22;20318;-83
2022/04/05 07:29:27;;;;;;;12.75;5.63;;;;;;;;;;6284191;22;20069;-85
2022/04/05 07:31:53;;;;;;;8.98;5.80;;;;;;;;;;6283942;22;20504;-84
2022/04/05 07:34:19;;;;;;;9.18;5.95;;;;;;;;;;6313480;22;20435;-84
2022/04/05 07:36:45;;;;;;;9.57;5.43;;;;;;;;;;6283993;22;20010;-85
2022/04/05 07:39:11;;;;;;;9.98;5.30;;;;;;;;;;6284440;22;20015;-84
2022/04/05 07:41:38;;;;;;;9.75;6.28;;;;;;;;;;6283310;22;20435;-85
2022/04/05 07:44:04;;;;;;;8.80;5.78;;;;;;;;;;6311304;22;20045;-83
2022/04/05 07:46:30;;;;;;;10.48;5.63;;;;;;;;;;6283791;22;20003;-85
2022/04/05 07:48:56;;;;;;;10.50;6.30;;;;;;;;;;6284677;22;20235;-84
2022/04/05 07:51:22;;;;;;;9.35;5.90;;;;;;;;;;6311484;22;20019;-84
2022/04/05 07:53:48;;;;;;;9.98;6.15;;;;;;;;;;6284320;22;20033;-84
2022/04/05 07:56:14;;;;;;;9.40;5.03;;;;;;;;;;6283597;22;20011;-84
2022/04/05 07:58:42;;;;;;;8.15;5.90;;;;;;;;;;6283912;22;20443;-84
2022/04/05 08:01:08;;;;;;;10.02;5.78;;;;;;;;;;6311987;22;19999;-86
2022/04/05 08:03:34;;;;;;;8.60;4.35;;;;;;;;;;6312038;22;20045;-85
2022/04/05 08:06:00;;;;;;;8.85;5.15;;;;;;;;;;6285580;22;20019;-85
2022/04/05 08:08:26;;;;;;;9.55;5.55;;;;;;;;;;6313185;22;19999;-84
2022/04/05 08:10:52;;;;;;;9.32;5.40;;;;;;;;;;6285062;22;20433;-84
2022/04/05 08:13:18;;;;;;;9.10;5.10;;;;;;;;;;6283926;22;20029;-85
2022/04/05 08:15:44;;;;;;;8.10;4.68;;;;;;;;;;6283821;22;20010;-85
2022/04/05 08:18:10;;;;;;;7.68;5.03;;;;;;;;;;6284767;22;20034;-84
2022/04/05 08:20:39;;;;;;;8.85;4.85;;;;;;;;;;6284700;22;20026;-85
2022/04/05 08:23:06;;;;;;;9.43;5.97;;;;;;;;;;6284399;22;20339;-84
2022/04/05 08:25:32;;;;;;;9.25;4.78;;;;;;;;;;6284556;22;20003;-84
2022/04/05 08:27:58;;;;;;;8.13;4.90;;;;;;;;;;6283526;22;20110;-84
2022/04/05 08:30:24;;;;;;;8.07;4.97;;;;;;;;;;6284496;22;20007;-85
2022/04/05 08:32:50;;;;;;;6.75;4.22;;;;;;;;;;6285084;22;20014;-83
2022/04/05 08:35:20;;;;;;;7.78;4.75;;;;;;;;;;6285121;22;20003;-85
2022/04/05 08:37:47;;;;;;;7.45;4.35;;;;;;;;;;6312090;22;20060;-85
2022/04/05 08:40:15;;;;;;;9.32;5.05;;;;;;;;;;6311276;22;20003;-84
2022/04/05 08:42:42;;;;;;;7.25;4.75;;;;;;;;;;6312647;22;20066;-85
2022/04/05 08:45:10;;;;;;;8.35;5.25;;;;;;;;;;6314448;22;20392;-85
2022/04/05 08:47:39;;;;;;;7.07;4.47;;;;;;;;;;6285778;22;20000;-85
2022/04/05 08:50:05;;;;;;;8.57;4.88;;;;;;;;;;6287131;22;20106;-84
2022/04/05 08:52:31;;;;;;;8.45;4.63;;;;;;;;;;6312968;22;19999;-85
2022/04/05 08:54:57;;;;;;;8.45;4.20;;;;;;;;;;6285837;22;20031;-85
2022/04/05 08:57:23;;;;;;;7.68;4.55;;;;;;;;;;6286960;22;20316;-84
2022/04/05 08:59:49;;;;;;;6.82;4.32;;;;;;;;;;6316302;22;20231;-84
2022/04/05 09:02:23;;;;;;;7.40;4.32;;;;;;;;;;6288455;22;19999;-84
2022/04/05 09:04:49;;;;;;;7.97;4.90;;;;;;;;;;6284798;22;20094;-84
2022/04/05 09:07:20;;;;;;;8.75;4.82;;;;;;;;;;6285601;22;19995;-86
2022/04/05 09:09:46;;;;;;;7.55;4.00;;;;;;;;;;6284683;22;20086;-84
2022/04/05 09:12:18;;;;;;;7.25;4.43;;;;;;;;;;6313632;22;20000;-85
2022/04/05 09:14:44;;;;;;;6.47;4.00;;;;;;;;;;6285516;22;20436;-85
2022/04/05 09:17:14;;;;;;;7.25;4.47;;;;;;;;;;6312622;22;20499;-84
2022/04/05 09:19:42;;;;;;;7.63;4.85;;;;;;;;;;6283424;22;20015;-83
2022/04/05 09:22:08;;;;;;;7.60;4.28;;;;;;;;;;6312150;22;19999;-85
2022/04/05 09:24:35;;;;;;;9.85;5.80;;;;;;;;;;6312439;22;20000;-84
2022/04/05 09:27:01;;;;;;;7.32;4.25;;;;;;;;;;6284326;22;20316;-84
2022/04/05 09:29:44;;;;;;;7.97;4.20;;;;;;;;;;6284921;22;20435;-82
2022/04/05 09:32:10;;;;;;;7.57;4.07;;;;;;;;;;6284995;22;20014;-83
2022/04/05 09:34:54;;;;;;;7.43;4.55;;;;;;;;;;6311580;22;20010;-84
2022/04/05 09:37:28;;;;;;;6.93;3.45;;;;;;;;;;6311896;22;20007;-84
2022/04/05 09:39:55;;;;;;;9.60;4.03;;;;;;;;;;6282793;22;20098;-86
2022/04/05 09:42:21;;;;;;;6.53;3.38;;;;;;;;;;6311058;22;19995;-84
2022/04/05 09:44:47;;;;;;;12.02;6.18;;;;;;;;;;6282427;22;20090;-84
2022/04/05 09:47:17;;;;;;;7.43;3.90;;;;;;;;;;6283751;22;20007;-85
2022/04/05 09:49:44;;;;;;;8.63;5.18;;;;;;;;;;6312162;22;20013;-84
2022/04/05 09:52:28;;;;;;;10.18;4.28;;;;;;;;;;6312073;22;20003;-85
2022/04/05 09:54:53;;;;;;;;;;;;;;;;;;6285217;22;20003;-83
2022/04/05 09:57:32;;;;;;;5.78;3.15;;;;;;;;;;6313389;22;19933;-84
2022/04/05 10:00:14;;;;;;;6.55;3.15;;;;;;;;;;6286226;22;20619;-83
2022/04/05 10:03:00;;;;;;;6.75;3.20;;;;;;;;;;6285599;22;20013;-85
2022/04/05 10:05:26;;;;;;;6.15;3.05;;;;;;;;;;6313364;22;20007;-84
2022/04/05 10:07:53;;;;;;;5.97;3.30;;;;;;;;;;6285747;22;20002;-84
2022/04/05 10:10:20;;;;;;;5.18;3.05;;;;;;;;;;6313381;22;20011;-85
2022/04/05 10:12:47;;;;;;;5.20;3.00;;;;;;;;;;6312659;22;20074;-84
2022/04/05 10:15:13;;;;;;;5.35;2.78;;;;;;;;;;6313456;22;20006;-84
2022/04/05 10:17:45;;;;;;;5.85;3.05;;;;;;;;;;6286135;22;20007;-85
2022/04/05 10:20:11;;;;;;;6.00;3.28;;;;;;;;;;6313095;22;20090;-84
2022/04/05 10:22:39;;;;;;;5.78;3.40;;;;;;;;;;6313965;22;20448;-83
2022/04/05 10:25:05;;;;;;;6.97;3.97;;;;;;;;;;6312877;22;19999;-84
2022/04/05 10:27:32;;;;;;;6.65;3.33;;;;;;;;;;6289258;22;20331;-82
2022/04/05 10:30:06;;;;;;;6.07;3.47;;;;;;;;;;6318636;22;20069;-84
2022/04/05 10:32:34;;;;;;;5.20;3.22;;;;;;;;;;6289653;22;20505;-84
2022/04/05 10:35:05;;;;;;;6.82;3.38;;;;;;;;;;6285630;22;20034;-85
2022/04/05 10:37:32;;;;;;;5.40;3.25;;;;;;;;;;6289423;22;20007;-86
2022/04/05 10:39:58;;;;;;;8.38;4.28;;;;;;;;;;6316061;22;19999;-85
2022/04/05 10:42:26;;;;;;;5.45;2.60;;;;;;;;;;6313490;22;20048;-83
2022/04/05 10:44:53;;;;;;;5.30;2.95;;;;;;;;;;6313480;22;19995;-87
2022/04/05 10:47:20;;;;;;;4.80;2.90;;;;;;;;;;6287429;22;20010;-85
2022/04/05 10:49:47;;;;;;;5.70;3.10;;;;;;;;;;6284943;22;20086;-85
2022/04/05 10:52:15;;;;;;;6.28;2.92;;;;;;;;;;6285125;22;20008;-85
2022/04/05 10:54:46;;;;;;;5.75;3.20;;;;;;;;;;6312484;22;20030;-85
2022/04/05 10:57:28;;;;;;;7.70;3.50;;;;;;;;;;6312754;22;20113;-85
2022/04/05 10:59:55;;;;;;;5.37;3.50;;;;;;;;;;6312434;22;20005;-85
2022/04/05 11:02:27;;;;;;;5.18;3.20;;;;;;;;;;6285700;22;20004;-84
2022/04/05 11:05:20;;;;;;;5.82;3.25;;;;;;;;;;6285619;22;20011;-85
2022/04/05 11:07:52;;;;;;;5.18;2.90;;;;;;;;;;6279860;22;20449;-84
2022/04/05 11:10:31;;;;;;;5.57;3.30;;;;;;;;;;6286006;22;20399;-84
2022/04/05 11:13:04;;;;;;;5.93;3.10;;;;;;;;;;6286472;22;19999;-86
2022/04/05 11:15:30;;;;;;;;;;;;;;;;;;6313754;22;20003;-84
2022/04/05 11:17:57;;;;;;;4.97;2.83;;;;;;;;;;6286208;22;19930;-83
2022/04/05 11:20:23;;;;;;;5.72;3.30;;;;;;;;;;6285590;22;20007;-86
2022/04/05 11:22:59;;;;;;;6.95;3.30;;;;;;;;;;6311971;22;20006;-85
2022/04/05 11:25:29;;;;;;;6.07;3.10;;;;;;;;;;6312464;22;20000;-86
2022/04/05 11:27:56;;;;;;;6.30;3.55;;;;;;;;;;6284487;22;20086;-85
2022/04/05 11:30:22;;;;;;;5.43;3.38;;;;;;;;;;6312614;22;20004;-84
2022/04/05 11:33:11;;;;;;;7.40;3.25;;;;;;;;;;6285127;22;20007;-85
2022/04/05 11:35:38;;;;;;;5.55;3.50;;;;;;;;;;6313881;22;20026;-86
2022/04/05 11:38:05;;;;;;;9.27;3.88;;;;;;;;;;6286285;22;20438;-86
2022/04/05 11:40:31;;;;;;;6.30;3.20;;;;;;;;;;6312034;22;20505;-84
2022/04/05 11:43:01;;;;;;;4.63;2.47;;;;;;;;;;6313546;22;20000;-84
2022/04/05 11:45:28;;;;;;;6.32;3.25;;;;;;;;;;6314634;22;20007;-83
2022/04/05 11:47:55;;;;;;;5.50;3.03;;;;;;;;;;6317491;22;20025;-84
2022/04/05 11:50:22;;;;;;;5.40;2.80;;;;;;;;;;6316524;22;20494;-85
2022/04/05 11:52:48;;;;;;;5.97;3.42;;;;;;;;;;6294798;22;20003;-82
2022/04/05 11:58:06;;;;;;;5.80;3.30;;;;;;;;;;6326284;22;20080;-82
2022/04/05 12:00:33;;;;;;;6.05;3.17;;;;;;;;;;6286770;22;20007;-83
2022/04/05 12:03:03;;;;;;;7.07;4.32;;;;;;;;;;6287002;22;20010;-85
2022/04/05 12:05:42;;;;;;;5.32;3.22;;;;;;;;;;6312174;22;20378;-83
2022/04/05 12:08:12;;;;;;;5.25;3.30;;;;;;;;;;6285264;22;20039;-84
2022/04/05 12:10:38;;;;;;;5.50;3.22;;;;;;;;;;6312375;22;19999;-83
2022/04/05 12:13:04;;;;;;;6.90;3.55;;;;;;;;;;6316297;22;20003;-84
2022/04/05 12:15:32;;;;;;;5.75;3.25;;;;;;;;;;6315609;22;20390;-83
2022/04/05 12:18:17;;;;;;;5.20;3.30;;;;;;;;;;6284962;22;20003;-83
2022/04/05 12:21:03;;;;;;;6.72;3.70;;;;;;;;;;6284048;22;20007;-83
2022/04/05 12:23:31;;;;;;;6.10;3.60;;;;;;;;;;6284281;22;20003;-84
2022/04/05 12:26:03;;;;;;;5.97;3.60;;;;;;;;;;6312249;22;20025;-83
2022/04/05 12:28:29;;;;;;;7.10;4.32;;;;;;;;;;6284531;22;20399;-83
2022/04/05 12:31:03;;;;;;;6.13;3.72;;;;;;;;;;6283633;22;20003;-82
2022/04/05 12:33:29;;;;;;;6.70;3.92;;;;;;;;;;6284779;22;20010;-82
2022/04/05 12:35:56;;;;;;;6.63;4.20;;;;;;;;;;6312009;22;19999;-83
2022/04/05 12:38:22;;;;;;;6.82;3.95;;;;;;;;;;6284213;22;20049;-83
2022/04/05 12:40:48;;;;;;;7.75;4.70;;;;;;;;;;6283821;22;20014;-83
2022/04/05 12:43:15;;;;;;;7.28;4.03;;;;;;;;;;6284297;22;20055;-83
2022/04/05 12:45:41;;;;;;;6.70;4.50;;;;;;;;;;6284795;22;20003;-83
2022/04/05 12:48:11;;;;;;;5.95;3.92;;;;;;;;;;6284196;22;20003;-82
2022/04/05 12:50:55;;;;;;;6.63;3.90;;;;;;;;;;6284553;22;20094;-84
2022/04/05 12:53:28;;;;;;;5.85;3.92;;;;;;;;;;6309936;22;20031;-84
2022/04/05 12:56:08;;;;;;;6.10;3.63;;;;;;;;;;6284526;22;20376;-84
2022/04/05 12:58:48;;;;;;;6.40;3.90;;;;;;;;;;6283667;22;20086;-84
2022/04/05 13:01:32;;;;;;;6.60;3.90;;;;;;;;;;6311844;22;19999;-86
2022/04/05 13:04:03;;;;;;;7.10;4.35;;;;;;;;;;6312526;22;19999;-85
2022/04/05 13:06:29;;;;;;;7.90;4.40;;;;;;;;;;6311709;22;20014;-84
2022/04/05 13:09:09;;;;;;;6.85;4.72;;;;;;;;;;6284318;22;20402;-84
2022/04/05 13:11:36;;;;;;;6.10;4.15;;;;;;;;;;6283866;22;20003;-83
2022/04/05 13:14:12;;;;;;;7.43;4.20;;;;;;;;;;6284557;22;20023;-84
2022/04/05 13:16:38;;;;;;;6.70;4.55;;;;;;;;;;6283792;22;20026;-84
2022/04/05 13:19:07;;;;;;;7.38;4.60;;;;;;;;;;6311865;22;20447;-85
2022/04/05 13:21:40;;;;;;;6.53;4.43;;;;;;;;;;6284631;22;19999;-83
2022/04/05 13:24:08;;;;;;;6.65;4.63;;;;;;;;;;6283672;22;20006;-82
2022/04/05 13:26:34;;;;;;;6.90;4.75;;;;;;;;;;6283694;22;20385;-84
2022/04/05 13:29:07;;;;;;;6.53;4.22;;;;;;;;;;6284009;22;20368;-84
2022/04/05 13:31:34;;;;;;;7.60;4.78;;;;;;;;;;6311657;22;19995;-82
2022/04/05 13:34:00;;;;;;;6.68;4.05;;;;;;;;;;6310588;22;19999;-84
2022/04/05 13:36:26;;;;;;;6.13;4.43;;;;;;;;;;6283213;22;20064;-83
2022/04/05 13:38:52;;;;;;;7.60;5.00;;;;;;;;;;6312032;22;19992;-83
2022/04/05 13:41:18;;;;;;;6.97;4.20;;;;;;;;;;6284636;22;20087;-83
2022/04/05 13:43:45;;;;;;;7.65;4.82;;;;;;;;;;6283923;22;20051;-83
2022/04/05 13:46:11;;;;;;;6.85;4.40;;;;;;;;;;6283715;22;20293;-83
2022/04/05 13:48:37;;;;;;;6.82;4.50;;;;;;;;;;6286944;22;19999;-84
2022/04/05 13:51:03;;;;;;;6.22;4.00;;;;;;;;;;6315539;22;20023;-84
2022/04/05 13:53:29;;;;;;;6.68;4.13;;;;;;;;;;6312650;22;19999;-83
2022/04/05 13:55:56;;;;;;;6.88;3.97;;;;;;;;;;6310891;22;20056;-82
2022/04/05 13:58:22;;;;;;;7.07;4.68;;;;;;;;;;6310589;22;20056;-83
2022/04/05 14:00:49;;;;;;;6.88;4.00;;;;;;;;;;6284086;22;20006;-83
2022/04/05 14:03:17;;;;;;;6.30;4.28;;;;;;;;;;6315896;22;20047;-82
2022/04/05 14:05:43;;;;;;;7.63;5.53;;;;;;;;;;6303781;22;19999;-83
2022/04/05 14:08:09;;;;;;;6.82;4.65;;;;;;;;;;6330846;22;19999;-82
2022/04/05 14:10:36;;;;;;;7.38;4.82;;;;;;;;;;6331063;22;20014;-83
2022/04/05 14:13:02;;;;;;;7.72;5.35;;;;;;;;;;6330301;22;20007;-81
2022/04/05 14:15:28;;;;;;;6.00;3.83;;;;;;;;;;6316937;22;20006;-83
2022/04/05 14:17:54;;;;;;;6.50;4.55;;;;;;;;;;6284379;22;20447;-82
2022/04/05 14:20:20;;;;;;;8.00;4.95;;;;;;;;;;6311677;22;20078;-84
2022/04/05 14:22:46;;;;;;;7.35;5.18;;;;;;;;;;6311121;22;20003;-84
2022/04/05 14:25:14;;;;;;;8.15;5.15;;;;;;;;;;6283426;22;19995;-83
2022/04/05 14:27:40;;;;;;;6.78;4.90;;;;;;;;;;6283659;22;20034;-84
2022/04/05 14:30:06;;;;;;;6.53;4.60;;;;;;;;;;6310803;22;20003;-84
2022/04/05 14:32:33;;;;;;;7.30;5.10;;;;;;;;;;6309930;22;20023;-82
2022/04/05 14:35:01;;;;;;;7.72;5.13;;;;;;;;;;6283896;22;20000;-82
2022/04/05 14:37:27;;;;;;;6.45;4.28;;;;;;;;;;6293794;22;20054;-83
2022/04/05 14:39:53;;;;;;;6.70;4.20;;;;;;;;;;6328665;22;19992;-83
2022/04/05 14:42:19;;;;;;;6.95;4.68;;;;;;;;;;6303179;22;19999;-83
2022/04/05 14:44:45;;;;;;;7.53;4.95;;;;;;;;;;6300991;22;19999;-82
2022/04/05 14:47:11;;;;;;;7.70;4.72;;;;;;;;;;6291634;22;20098;-81
2022/04/05 14:49:38;;;;;;;7.65;4.88;;;;;;;;;;6322323;22;20007;-82
2022/04/05 14:52:04;;;;;;;6.20;4.22;;;;;;;;;;6312038;22;20343;-82
2022/04/05 14:54:31;;;;;;;7.88;5.28;;;;;;;;;;6311903;22;20042;-82
2022/04/05 14:56:58;;;;;;;6.97;4.70;;;;;;;;;;6285134;22;20004;-84
2022/04/05 14:59:25;;;;;;;7.15;5.10;;;;;;;;;;6284640;22;20339;-84